createdAt,value
2023-01-19T00:02:23.622Z,8.85
2023-01-19T00:05:25.196Z,10.18
2023-01-19T00:08:26.998Z,8.77
2023-01-19T00:11:28.579Z,9.32
2023-01-19T00:14:30.179Z,10.07
2023-01-19T00:17:31.850Z,9.68
2023-01-19T00:20:35.532Z,10.23
2023-01-19T00:23:37.187Z,10.15
2023-01-19T00:26:40.503Z,9.85
2023-01-19T00:29:42.086Z,10.00
2023-01-19T00:32:43.722Z,9.68
2023-01-19T00:35:45.462Z,8.98
2023-01-19T00:38:47.111Z,9.75
2023-01-19T00:42:07.051Z,8.77
2023-01-19T00:45:10.202Z,8.85
2023-01-19T00:48:11.755Z,9.05
2023-01-19T00:51:13.373Z,9.00
2023-01-19T00:54:15.114Z,9.27
2023-01-19T00:57:16.857Z,9.02
2023-01-19T01:00:22.035Z,8.32
2023-01-19T01:03:28.015Z,7.97
2023-01-19T01:06:29.739Z,7.97
2023-01-19T01:09:31.379Z,8.52
2023-01-19T01:12:32.964Z,8.07
2023-01-19T01:15:34.734Z,7.70
2023-01-19T01:18:36.320Z,7.32
2023-01-19T01:21:37.922Z,7.32
2023-01-19T01:24:39.556Z,7.78
2023-01-19T01:27:42.380Z,7.63
2023-01-19T01:30:44.126Z,7.65
2023-01-19T01:33:46.023Z,7.43
2023-01-19T01:36:47.588Z,7.38
2023-01-19T01:39:49.182Z,7.10
2023-01-19T01:42:50.792Z,6.40
2023-01-19T01:45:53.983Z,7.03
2023-01-19T01:49:10.883Z,6.18
2023-01-19T01:52:12.483Z,6.30
2023-01-19T01:55:14.092Z,5.18
2023-01-19T01:58:15.720Z,5.75
2023-01-19T02:01:35.726Z,5.38
2023-01-19T02:04:38.068Z,5.87
2023-01-19T02:08:07.507Z,6.60
2023-01-19T02:11:27.819Z,6.63
2023-01-19T02:14:29.419Z,6.30
2023-01-19T02:17:31.018Z,6.88
2023-01-19T02:20:32.605Z,6.45
2023-01-19T02:23:45.468Z,6.05
2023-01-19T02:26:47.474Z,5.23
2023-01-19T02:29:49.056Z,5.72
2023-01-19T02:32:50.631Z,5.93
2023-01-19T02:35:52.316Z,5.93
2023-01-19T02:38:56.185Z,5.63
2023-01-19T02:42:01.834Z,5.03
2023-01-19T02:45:09.451Z,4.72
2023-01-19T02:48:11.370Z,4.40
2023-01-19T02:51:25.606Z,3.45
2023-01-19T02:54:46.392Z,3.67
2023-01-19T02:58:15.603Z,3.30
2023-01-19T03:01:35.915Z,4.50
2023-01-19T03:05:00.179Z,4.57
2023-01-19T03:08:08.048Z,4.10
2023-01-19T03:11:11.187Z,4.72
2023-01-19T03:14:14.764Z,4.57
2023-01-19T03:17:17.345Z,3.88
2023-01-19T03:20:22.208Z,3.70
2023-01-19T03:23:26.323Z,3.13
2023-01-19T03:26:29.826Z,2.97
2023-01-19T03:29:34.796Z,2.33
2023-01-19T03:32:39.966Z,1.92
2023-01-19T03:35:44.575Z,1.80
2023-01-19T03:38:46.354Z,1.47
2023-01-19T03:41:48.717Z,1.40
2023-01-19T03:44:51.324Z,1.23
2023-01-19T03:47:52.927Z,1.33
2023-01-19T03:50:55.139Z,1.30
2023-01-19T03:53:56.753Z,1.38
2023-01-19T03:56:58.433Z,1.20
2023-01-19T04:00:00.036Z,0.80
2023-01-19T04:03:02.128Z,0.82
2023-01-19T04:06:04.102Z,1.23
2023-01-19T04:09:05.776Z,1.10
2023-01-19T04:12:07.687Z,1.00
2023-01-19T04:15:09.328Z,1.30
2023-01-19T04:18:11.838Z,0.75
2023-01-19T04:21:13.417Z,0.90
2023-01-19T04:24:15.026Z,0.90
2023-01-19T04:27:16.731Z,1.40
2023-01-19T04:30:18.446Z,1.60
2023-01-19T04:33:20.347Z,1.52
2023-01-19T04:36:21.912Z,1.60
2023-01-19T04:39:23.564Z,1.35
2023-01-19T04:42:25.153Z,1.50
2023-01-19T04:45:26.793Z,1.35
2023-01-19T04:48:28.406Z,2.33
2023-01-19T04:51:30.063Z,1.52
2023-01-19T04:54:31.758Z,1.92
2023-01-19T04:57:33.630Z,2.20
2023-01-19T05:00:35.417Z,2.60
2023-01-19T05:03:37.088Z,3.05
2023-01-19T05:06:38.657Z,3.50
2023-01-19T05:09:40.253Z,3.05
2023-01-19T05:12:42.301Z,2.90
2023-01-19T05:15:43.946Z,2.75
2023-01-19T05:18:45.590Z,3.38
2023-01-19T05:21:47.205Z,3.03
2023-01-19T05:24:48.871Z,3.13
2023-01-19T05:27:50.482Z,3.30
2023-01-19T05:30:52.179Z,3.05
2023-01-19T05:33:53.773Z,3.60
2023-01-19T05:36:55.396Z,2.90
2023-01-19T05:39:57.297Z,3.10
2023-01-19T05:43:02.280Z,3.08
2023-01-19T05:46:05.336Z,2.95
2023-01-19T05:49:07.484Z,3.33
2023-01-19T05:52:12.553Z,2.55
2023-01-19T05:55:15.513Z,2.83
2023-01-19T05:58:17.166Z,2.50
2023-01-19T06:01:18.781Z,2.85
2023-01-19T06:04:20.974Z,2.60
2023-01-19T06:07:24.378Z,2.88
2023-01-19T06:10:26.770Z,2.75
2023-01-19T06:13:28.359Z,2.50
2023-01-19T06:16:30.075Z,2.57
2023-01-19T06:19:32.167Z,2.30
2023-01-19T06:22:33.792Z,2.70
2023-01-19T06:25:35.446Z,2.30
2023-01-19T06:28:37.005Z,2.72
2023-01-19T06:31:38.636Z,2.53
2023-01-19T06:34:43.726Z,2.58
2023-01-19T06:37:45.371Z,3.00
2023-01-19T06:40:53.384Z,3.15
2023-01-19T06:43:55.131Z,3.30
2023-01-19T06:47:15.567Z,3.30
2023-01-19T06:50:17.915Z,2.90
2023-01-19T06:53:20.844Z,3.58
2023-01-19T06:56:22.619Z,3.60
2023-01-19T06:59:25.666Z,3.47
2023-01-19T07:02:28.642Z,3.60
2023-01-19T07:05:30.577Z,4.25
2023-01-19T07:08:33.135Z,3.70
2023-01-19T07:11:34.721Z,3.70
2023-01-19T07:14:36.330Z,4.30
2023-01-19T07:17:38.076Z,3.65
2023-01-19T07:20:39.703Z,4.27
2023-01-19T07:23:41.372Z,4.57
2023-01-19T07:26:43.042Z,4.57
2023-01-19T07:29:44.685Z,4.32
2023-01-19T07:32:46.331Z,4.70
2023-01-19T07:35:51.162Z,4.13
2023-01-19T07:38:52.747Z,4.35
2023-01-19T07:41:54.399Z,4.17
2023-01-19T07:44:56.111Z,4.32
2023-01-19T07:47:57.928Z,4.40
2023-01-19T07:51:01.184Z,4.50
2023-01-19T07:54:02.868Z,3.80
2023-01-19T07:57:04.719Z,4.28
2023-01-19T08:00:08.832Z,4.90
2023-01-19T08:03:10.543Z,4.40
2023-01-19T08:06:24.534Z,4.35
2023-01-19T08:09:26.210Z,5.05
2023-01-19T08:12:27.842Z,4.90
2023-01-19T08:15:29.465Z,5.63
2023-01-19T08:18:31.072Z,5.35
2023-01-19T08:21:33.408Z,6.22
2023-01-19T08:24:35.137Z,6.78
2023-01-19T08:27:36.764Z,7.20
2023-01-19T08:30:38.749Z,6.72
2023-01-19T08:33:41.907Z,7.22
2023-01-19T08:36:43.619Z,7.82
2023-01-19T08:39:45.289Z,9.52
2023-01-19T08:42:46.947Z,9.55
2023-01-19T08:45:52.282Z,10.18
2023-01-19T08:48:54.977Z,11.87
2023-01-19T08:51:56.585Z,11.60
2023-01-19T08:54:58.279Z,11.02
2023-01-19T08:58:00.598Z,10.57
2023-01-19T09:01:03.911Z,11.73
2023-01-19T09:04:05.870Z,10.95
2023-01-19T09:07:07.558Z,12.25
2023-01-19T09:10:10.623Z,12.02
2023-01-19T09:13:12.223Z,11.43
2023-01-19T09:16:16.067Z,12.20
2023-01-19T09:19:18.349Z,12.57
2023-01-19T09:22:19.994Z,14.00
2023-01-19T09:25:21.585Z,12.50
2023-01-19T09:28:23.206Z,12.48
2023-01-19T09:31:24.940Z,11.68
2023-01-19T09:34:26.622Z,12.77
2023-01-19T09:37:28.242Z,12.57
2023-01-19T09:40:30.129Z,12.75
2023-01-19T09:43:43.147Z,12.18
2023-01-19T09:46:45.313Z,11.13
2023-01-19T09:49:50.090Z,11.90
2023-01-19T09:53:02.459Z,12.20
2023-01-19T09:56:04.709Z,12.88
2023-01-19T09:59:26.090Z,12.40
2023-01-19T10:02:40.206Z,13.88
2023-01-19T10:06:09.621Z,26.40
2023-01-19T10:09:26.815Z,12.30
2023-01-19T10:12:51.131Z,11.77
2023-01-19T10:16:01.857Z,13.55
2023-01-19T10:19:15.467Z,11.23
2023-01-19T10:22:22.321Z,11.50
2023-01-19T10:25:24.583Z,11.55
2023-01-19T10:28:26.242Z,11.15
2023-01-19T10:31:27.974Z,10.67
2023-01-19T10:34:29.711Z,11.52
2023-01-19T10:37:38.452Z,11.20
2023-01-19T10:40:49.796Z,10.60
2023-01-19T10:43:59.058Z,11.85
2023-01-19T10:47:01.288Z,11.52
2023-01-19T10:50:21.683Z,11.88
2023-01-19T10:53:25.718Z,11.53
2023-01-19T10:56:32.511Z,12.20
2023-01-19T10:59:38.321Z,11.90
2023-01-19T11:02:53.302Z,10.10
2023-01-19T11:06:16.136Z,10.73
2023-01-19T11:09:19.365Z,11.75
2023-01-19T11:12:22.295Z,11.60
2023-01-19T11:15:53.503Z,11.67
2023-01-19T11:18:56.123Z,11.27
2023-01-19T11:22:24.868Z,10.77
2023-01-19T11:25:30.999Z,12.02
2023-01-19T11:28:37.703Z,11.48
2023-01-19T11:31:39.348Z,11.48
2023-01-19T11:34:41.066Z,11.65
2023-01-19T11:37:43.267Z,11.10
2023-01-19T11:41:06.670Z,11.88
2023-01-19T11:44:17.302Z,11.80
2023-01-19T11:47:24.602Z,11.60
2023-01-19T11:50:30.264Z,12.03
2023-01-19T11:53:35.371Z,11.77
2023-01-19T11:56:37.046Z,12.00
2023-01-19T11:59:38.768Z,10.97
2023-01-19T12:02:44.268Z,11.93
2023-01-19T12:05:50.377Z,12.88
2023-01-19T12:09:13.639Z,11.48
2023-01-19T12:12:32.219Z,12.35
2023-01-19T12:15:37.808Z,13.63
2023-01-19T12:18:44.965Z,12.15
2023-01-19T12:21:49.443Z,11.60
2023-01-19T12:25:01.352Z,11.73
2023-01-19T12:28:07.368Z,11.35
2023-01-19T12:31:09.132Z,11.15
2023-01-19T12:34:27.346Z,9.00
2023-01-19T12:37:32.164Z,10.05
2023-01-19T12:40:35.347Z,9.98
2023-01-19T12:43:37.105Z,10.63
2023-01-19T12:46:39.473Z,10.73
2023-01-19T12:49:45.588Z,10.55
2023-01-19T12:52:57.160Z,10.32
2023-01-19T12:56:00.037Z,9.98
2023-01-19T12:59:03.013Z,10.23
2023-01-19T13:02:23.613Z,10.93
2023-01-19T13:05:48.732Z,10.63
2023-01-19T13:08:56.615Z,10.93
2023-01-19T13:12:30.600Z,11.43
2023-01-19T13:15:35.747Z,10.18
2023-01-19T13:18:40.784Z,9.68
2023-01-19T13:21:47.023Z,10.65
2023-01-19T13:25:11.797Z,10.80
2023-01-19T13:28:14.066Z,10.43
2023-01-19T13:31:15.776Z,9.95
2023-01-19T13:34:19.255Z,10.48
2023-01-19T13:37:22.544Z,10.90
2023-01-19T13:40:25.672Z,10.63
2023-01-19T13:43:33.440Z,11.10
2023-01-19T13:46:38.511Z,9.70
2023-01-19T13:49:40.826Z,10.90
2023-01-19T13:52:43.418Z,10.30
2023-01-19T13:55:45.038Z,10.68
2023-01-19T13:59:11.859Z,10.60
2023-01-19T14:02:13.906Z,9.68
2023-01-19T14:05:17.126Z,10.68
2023-01-19T14:08:19.382Z,9.73
2023-01-19T14:11:20.987Z,10.10
2023-01-19T14:14:26.512Z,9.88
2023-01-19T14:17:29.339Z,8.38
2023-01-19T14:20:32.822Z,8.77
2023-01-19T14:23:40.334Z,8.70
2023-01-19T14:26:52.771Z,9.25
2023-01-19T14:29:54.919Z,8.83
2023-01-19T14:32:56.635Z,8.15
2023-01-19T14:36:03.801Z,7.75
2023-01-19T14:39:05.751Z,8.10
2023-01-19T14:42:07.356Z,7.40
2023-01-19T14:45:27.382Z,7.78
2023-01-19T14:48:31.250Z,7.65
2023-01-19T14:51:32.849Z,7.97
2023-01-19T14:54:38.908Z,7.90
2023-01-19T14:57:40.504Z,7.68
2023-01-19T15:00:42.618Z,8.17
2023-01-19T15:03:45.607Z,8.18
2023-01-19T15:06:48.422Z,7.47
2023-01-19T15:09:50.160Z,8.38
2023-01-19T15:12:52.583Z,6.97
2023-01-19T15:15:54.293Z,7.20
2023-01-19T15:18:56.077Z,8.05
2023-01-19T15:21:57.753Z,7.47
2023-01-19T15:25:00.315Z,7.53
2023-01-19T15:28:02.162Z,7.82
2023-01-19T15:31:07.025Z,8.17
2023-01-19T15:34:11.829Z,8.48
2023-01-19T15:37:13.503Z,8.32
2023-01-19T15:40:15.370Z,8.40
2023-01-19T15:43:16.932Z,8.88
2023-01-19T15:46:25.523Z,8.43
2023-01-19T15:49:27.552Z,9.38
2023-01-19T15:52:29.148Z,9.03
2023-01-19T15:55:30.731Z,9.07
2023-01-19T15:58:32.306Z,9.40
2023-01-19T16:01:35.011Z,9.13
2023-01-19T16:04:36.728Z,8.23
2023-01-19T16:07:38.342Z,9.55
2023-01-19T16:10:40.901Z,8.95
2023-01-19T16:13:46.343Z,8.37
2023-01-19T16:16:47.995Z,9.25
2023-01-19T16:19:49.624Z,10.05
2023-01-19T16:22:51.223Z,9.67
2023-01-19T16:25:59.661Z,8.85
2023-01-19T16:29:07.873Z,9.45
2023-01-19T16:32:13.095Z,9.32
2023-01-19T16:35:15.693Z,9.20
2023-01-19T16:38:17.294Z,9.68
2023-01-19T16:41:19.061Z,9.27
2023-01-19T16:44:20.657Z,9.77
2023-01-19T16:47:25.373Z,9.50
2023-01-19T16:50:26.995Z,9.80
2023-01-19T16:53:28.770Z,8.80
2023-01-19T16:56:30.548Z,9.80
2023-01-19T16:59:32.171Z,9.93
2023-01-19T17:02:37.635Z,9.82
2023-01-19T17:05:39.303Z,10.02
2023-01-19T17:08:40.971Z,9.68
2023-01-19T17:11:42.732Z,9.18
2023-01-19T17:14:44.428Z,9.40
2023-01-19T17:17:46.257Z,9.35
2023-01-19T17:20:47.836Z,9.32
2023-01-19T17:23:51.693Z,9.70
2023-01-19T17:26:53.268Z,9.73
2023-01-19T17:29:54.946Z,10.80
2023-01-19T17:32:56.631Z,9.82
2023-01-19T17:36:09.075Z,9.32
2023-01-19T17:39:14.675Z,10.25
2023-01-19T17:42:16.437Z,9.52
2023-01-19T17:45:18.225Z,9.60
2023-01-19T17:48:19.817Z,9.77
2023-01-19T17:51:23.096Z,8.93
2023-01-19T17:54:24.729Z,9.93
2023-01-19T17:57:26.335Z,10.30
2023-01-19T18:00:28.247Z,9.82
2023-01-19T18:03:29.853Z,10.40
2023-01-19T18:06:31.441Z,8.75
2023-01-19T18:09:33.034Z,9.88
2023-01-19T18:12:34.686Z,9.75
2023-01-19T18:15:36.282Z,9.23
2023-01-19T18:18:37.988Z,9.05
2023-01-19T18:21:39.674Z,8.07
2023-01-19T18:24:41.299Z,8.93
2023-01-19T18:27:42.892Z,9.02
2023-01-19T18:30:45.024Z,8.73
2023-01-19T18:33:49.757Z,9.93
2023-01-19T18:36:51.392Z,9.05
2023-01-19T18:39:54.495Z,9.77
2023-01-19T18:42:56.096Z,9.90
2023-01-19T18:45:57.758Z,10.53
2023-01-19T18:48:59.483Z,9.32
2023-01-19T18:52:01.323Z,9.80
2023-01-19T18:55:02.932Z,9.40
2023-01-19T18:58:05.289Z,8.88
2023-01-19T19:01:36.137Z,10.05
2023-01-19T19:04:37.942Z,7.60
2023-01-19T19:07:39.574Z,8.80
2023-01-19T19:10:41.900Z,8.18
2023-01-19T19:13:43.516Z,8.48
2023-01-19T19:16:45.320Z,7.83
2023-01-19T19:19:46.918Z,8.55
2023-01-19T19:22:48.829Z,8.23
2023-01-19T19:25:50.402Z,7.97
2023-01-19T19:28:52.041Z,7.97
2023-01-19T19:31:53.673Z,8.60
2023-01-19T19:34:59.077Z,9.32
2023-01-19T19:38:00.673Z,8.32
2023-01-19T19:41:09.281Z,9.15
2023-01-19T19:44:12.796Z,9.10
2023-01-19T19:47:14.392Z,8.43
2023-01-19T19:50:16.380Z,8.10
2023-01-19T19:53:17.995Z,9.13
2023-01-19T19:56:21.379Z,8.73
2023-01-19T19:59:23.118Z,8.98
2023-01-19T20:02:24.707Z,8.90
2023-01-19T20:05:26.322Z,8.85
2023-01-19T20:08:28.042Z,9.38
2023-01-19T20:11:29.749Z,8.82
2023-01-19T20:14:31.293Z,8.88
2023-01-19T20:17:32.880Z,7.87
2023-01-19T20:20:34.918Z,8.10
2023-01-19T20:23:36.461Z,9.02
2023-01-19T20:26:40.248Z,8.77
2023-01-19T20:29:41.876Z,8.40
2023-01-19T20:32:43.519Z,8.80
2023-01-19T20:35:45.147Z,7.45
2023-01-19T20:38:46.720Z,8.20
2023-01-19T20:41:50.898Z,8.50
2023-01-19T20:44:52.942Z,8.35
2023-01-19T20:47:54.600Z,7.47
2023-01-19T20:51:03.147Z,7.07
2023-01-19T20:54:04.849Z,7.50
2023-01-19T20:57:06.577Z,7.13
2023-01-19T21:00:09.187Z,7.57
2023-01-19T21:03:10.825Z,7.63
2023-01-19T21:06:12.593Z,7.80
2023-01-19T21:09:14.243Z,7.67
2023-01-19T21:12:16.099Z,8.02
2023-01-19T21:15:18.716Z,8.27
2023-01-19T21:18:20.311Z,8.02
2023-01-19T21:21:30.522Z,8.30
2023-01-19T21:24:32.968Z,8.43
2023-01-19T21:27:34.528Z,8.80
2023-01-19T21:30:36.321Z,8.30
2023-01-19T21:33:37.965Z,8.63
2023-01-19T21:36:39.880Z,8.32
2023-01-19T21:39:41.483Z,8.13
2023-01-19T21:42:43.146Z,7.17
2023-01-19T21:45:44.788Z,7.40
2023-01-19T21:48:46.781Z,7.85
2023-01-19T21:51:50.604Z,8.40
2023-01-19T21:54:52.226Z,8.25
2023-01-19T21:57:53.822Z,8.00
2023-01-19T22:01:02.628Z,8.05
2023-01-19T22:04:04.362Z,7.63
2023-01-19T22:07:06.657Z,7.40
2023-01-19T22:10:09.546Z,7.88
2023-01-19T22:13:11.159Z,7.10
2023-01-19T22:16:14.651Z,7.30
2023-01-19T22:19:16.281Z,6.60
2023-01-19T22:22:17.864Z,7.32
2023-01-19T22:25:23.855Z,6.80
2023-01-19T22:28:25.441Z,7.60
2023-01-19T22:31:27.682Z,7.15
2023-01-19T22:34:29.322Z,6.13
2023-01-19T22:37:35.130Z,7.35
2023-01-19T22:40:36.737Z,7.40
2023-01-19T22:43:38.405Z,7.50
2023-01-19T22:46:40.050Z,7.10
2023-01-19T22:49:41.615Z,7.70
2023-01-19T22:52:43.262Z,7.45
2023-01-19T22:55:44.918Z,6.77
2023-01-19T22:58:46.636Z,7.50
2023-01-19T23:01:49.220Z,7.68
2023-01-19T23:04:50.867Z,8.17
2023-01-19T23:07:52.458Z,7.82
2023-01-19T23:10:54.003Z,7.97
2023-01-19T23:13:55.679Z,7.90
2023-01-19T23:16:57.255Z,8.45
2023-01-19T23:19:58.839Z,8.35
2023-01-19T23:23:00.499Z,7.70
2023-01-19T23:26:21.250Z,8.60
2023-01-19T23:29:23.351Z,8.15
2023-01-19T23:32:24.931Z,8.73
2023-01-19T23:35:26.522Z,8.00
2023-01-19T23:38:28.114Z,8.15
2023-01-19T23:41:30.756Z,7.78
2023-01-19T23:44:32.363Z,7.85
2023-01-19T23:47:35.494Z,9.00
2023-01-19T23:50:39.743Z,9.27
2023-01-19T23:53:41.350Z,8.80
2023-01-19T23:56:42.925Z,8.93
2023-01-19T23:59:44.595Z,8.95
